sensor_id;sensor_type;location;lat;lon;timestamp;pressure;altitude;pressure_sealevel;temperature;humidity
76044;BME280;64740;34.694;33.088;2023-05-15T00:02:08;1037.3;;;24.7;48.9
76044;BME280;64740;34.694;33.088;2023-05-15T00:06:58;1037.2;;;24.6;48.8
76044;BME280;64740;34.694;33.088;2023-05-15T00:11:58;1037.2;;;24.6;48.7
76044;BME280;64740;34.694;33.088;2023-05-15T00:16:24;1037.2;;;24.6;48.3
76044;BME280;64740;34.694;33.088;2023-05-15T00:22:10;1037.1;;;24.5;48.2
76044;BME280;64740;34.694;33.088;2023-05-15T00:26:46;1037.2;;;24.5;48.4
76044;BME280;64740;34.694;33.088;2023-05-15T00:31:36;1037.2;;;24.5;48.2
76044;BME280;64740;34.694;33.088;2023-05-15T00:36:56;1037.1;;;24.5;48
76044;BME280;64740;34.694;33.088;2023-05-15T00:42:08;1037.1;;;24.5;48.6
76044;BME280;64740;34.694;33.088;2023-05-15T00:46:24;1037.1;;;24.5;47.9
76044;BME280;64740;34.694;33.088;2023-05-15T00:51:26;1037;;;24.5;47.2
76044;BME280;64740;34.694;33.088;2023-05-15T00:56:56;1037;;;24.4;47
76044;BME280;64740;34.694;33.088;2023-05-15T01:01:58;1037;;;24.4;47.1
76044;BME280;64740;34.694;33.088;2023-05-15T01:06:44;1037;;;24.4;47.4
76044;BME280;64740;34.694;33.088;2023-05-15T01:11:26;1037;;;24.4;47
76044;BME280;64740;34.694;33.088;2023-05-15T01:17:08;1037;;;24.3;46.7
76044;BME280;64740;34.694;33.088;2023-05-15T01:22:17;1037;;;24.3;46.9
76044;BME280;64740;34.694;33.088;2023-05-15T01:26:31;1036.9;;;24.3;46.9
76044;BME280;64740;34.694;33.088;2023-05-15T01:32:10;1036.9;;;24.3;47
76044;BME280;64740;34.694;33.088;2023-05-15T01:36:47;1036.8;;;24.2;46.8
76044;BME280;64740;34.694;33.088;2023-05-15T01:41:25;1036.8;;;24.3;47
76044;BME280;64740;34.694;33.088;2023-05-15T01:46:38;1036.7;;;24.2;47
76044;BME280;64740;34.694;33.088;2023-05-15T01:52:09;1036.6;;;24.2;47.4
76044;BME280;64740;34.694;33.088;2023-05-15T01:56:58;1036.5;;;24.1;47.5
76044;BME280;64740;34.694;33.088;2023-05-15T02:01:25;1036.5;;;24.1;47.5
76044;BME280;64740;34.694;33.088;2023-05-15T02:07:08;1036.6;;;24.1;47.4
76044;BME280;64740;34.694;33.088;2023-05-15T02:11:44;1036.6;;;24;47.3
76044;BME280;64740;34.694;33.088;2023-05-15T02:16:44;1036.5;;;23.9;47.3
76044;BME280;64740;34.694;33.088;2023-05-15T02:21:47;1036.5;;;23.9;47.4
76044;BME280;64740;34.694;33.088;2023-05-15T02:27:08;1036.5;;;23.8;47.3
76044;BME280;64740;34.694;33.088;2023-05-15T02:31:58;1036.5;;;23.7;47.3
76044;BME280;64740;34.694;33.088;2023-05-15T02:36:46;1036.6;;;23.7;47.4
76044;BME280;64740;34.694;33.088;2023-05-15T02:42:09;1036.6;;;23.7;47.4
76044;BME280;64740;34.694;33.088;2023-05-15T02:46:26;1036.6;;;23.7;47.3
76044;BME280;64740;34.694;33.088;2023-05-15T02:51:24;1036.6;;;23.7;47.3
76044;BME280;64740;34.694;33.088;2023-05-15T02:56:46;1036.6;;;23.7;47.3
76044;BME280;64740;34.694;33.088;2023-05-15T03:01:56;1036.6;;;23.7;47.2
76044;BME280;64740;34.694;33.088;2023-05-15T03:06:32;1036.7;;;23.7;47.4
76044;BME280;64740;34.694;33.088;2023-05-15T03:11:56;1036.8;;;23.7;47.3
76044;BME280;64740;34.694;33.088;2023-05-15T03:17:00;1036.9;;;23.7;47.1
76044;BME280;64740;34.694;33.088;2023-05-15T03:21:36;1036.9;;;23.7;46.9
76044;BME280;64740;34.694;33.088;2023-05-15T03:27:10;1037;;;23.8;47
76044;BME280;64740;34.694;33.088;2023-05-15T03:31:46;1037;;;23.8;47.8
76044;BME280;64740;34.694;33.088;2023-05-15T03:36:48;1037;;;23.9;49
76044;BME280;64740;34.694;33.088;2023-05-15T03:41:34;1037.1;;;24;49.7
76044;BME280;64740;34.694;33.088;2023-05-15T03:47:10;1037.1;;;24.1;50
76044;BME280;64740;34.694;33.088;2023-05-15T03:51:24;1037.2;;;24.2;50.3
76044;BME280;64740;34.694;33.088;2023-05-15T03:56:58;1037.3;;;24.3;50
76044;BME280;64740;34.694;33.088;2023-05-15T04:01:56;1037.3;;;24.4;49.9
76044;BME280;64740;34.694;33.088;2023-05-15T04:06:48;1037.3;;;24.5;50.1
76044;BME280;64740;34.694;33.088;2023-05-15T04:11:44;1037.3;;;24.6;50.5
76044;BME280;64740;34.694;33.088;2023-05-15T04:16:25;1037.4;;;24.7;51.3
76044;BME280;64740;34.694;33.088;2023-05-15T04:22:10;1037.3;;;24.8;52.1
76044;BME280;64740;34.694;33.088;2023-05-15T04:27:08;1037.3;;;24.9;52.5
76044;BME280;64740;34.694;33.088;2023-05-15T04:31:24;1037.4;;;25;52.7
76044;BME280;64740;34.694;33.088;2023-05-15T04:37:10;1037.5;;;25;52.7
76044;BME280;64740;34.694;33.088;2023-05-15T04:41:24;1037.5;;;25.1;52.5
76044;BME280;64740;34.694;33.088;2023-05-15T04:46:24;1037.5;;;25.2;52.2
76044;BME280;64740;34.694;33.088;2023-05-15T04:51:48;1037.4;;;25.3;52.3
76044;BME280;64740;34.694;33.088;2023-05-15T04:57:10;1037.4;;;25.3;52.1
76044;BME280;64740;34.694;33.088;2023-05-15T05:01:34;1037.5;;;25.4;52.4
76044;BME280;64740;34.694;33.088;2023-05-15T05:06:36;1037.6;;;25.4;52.8
76044;BME280;64740;34.694;33.088;2023-05-15T05:12:10;1037.6;;;25.3;52.7
76044;BME280;64740;34.694;33.088;2023-05-15T05:16:44;1037.5;;;25.3;52.5
76044;BME280;64740;34.694;33.088;2023-05-15T05:21:45;1037.6;;;25.3;52.8
76044;BME280;64740;34.694;33.088;2023-05-15T05:26:34;1037.6;;;25.4;53.1
76044;BME280;64740;34.694;33.088;2023-05-15T05:32:10;1037.7;;;25.4;53.2
76044;BME280;64740;34.694;33.088;2023-05-15T05:36:56;1037.7;;;25.4;53.6
76044;BME280;64740;34.694;33.088;2023-05-15T05:41:46;1037.7;;;25.4;53.6
76044;BME280;64740;34.694;33.088;2023-05-15T05:46:24;1037.8;;;25.5;53.4
76044;BME280;64740;34.694;33.088;2023-05-15T05:52:10;1037.9;;;25.6;53.3
76044;BME280;64740;34.694;33.088;2023-05-15T05:56:22;1037.9;;;25.8;53.4
76044;BME280;64740;34.694;33.088;2023-05-15T06:01:36;1037.8;;;25.9;53.2
76044;BME280;64740;34.694;33.088;2023-05-15T06:06:45;1037.8;;;26;52.8
76044;BME280;64740;34.694;33.088;2023-05-15T06:11:57;1037.8;;;26.2;52.5
76044;BME280;64740;34.694;33.088;2023-05-15T06:17:11;1037.9;;;26.3;52.5
76044;BME280;64740;34.694;33.088;2023-05-15T06:22:01;1037.9;;;26.3;52.5
76044;BME280;64740;34.694;33.088;2023-05-15T06:26:25;1037.9;;;26.3;52.6
76044;BME280;64740;34.694;33.088;2023-05-15T06:32:11;1037.9;;;26.3;52.8
76044;BME280;64740;34.694;33.088;2023-05-15T06:36:45;1037.9;;;26.3;52.8
76044;BME280;64740;34.694;33.088;2023-05-15T06:41:37;1037.9;;;26.3;53
76044;BME280;64740;34.694;33.088;2023-05-15T06:46:59;1037.9;;;26.3;53.1
76044;BME280;64740;34.694;33.088;2023-05-15T06:52:11;1037.9;;;26.1;53.8
76044;BME280;64740;34.694;33.088;2023-05-15T06:56:49;1038;;;26;54
76044;BME280;64740;34.694;33.088;2023-05-15T07:02:11;1038;;;26.1;54.4
76044;BME280;64740;34.694;33.088;2023-05-15T07:07:11;1038;;;26.1;54.4
76044;BME280;64740;34.694;33.088;2023-05-15T07:12:11;1038;;;26.2;54.6
76044;BME280;64740;34.694;33.088;2023-05-15T07:16:45;1038;;;26.3;54.5
76044;BME280;64740;34.694;33.088;2023-05-15T07:22:11;1038;;;26.4;54.3
76044;BME280;64740;34.694;33.088;2023-05-15T07:26:59;1037.9;;;26.4;54.9
76044;BME280;64740;34.694;33.088;2023-05-15T07:31:57;1037.9;;;26.4;55.1
76044;BME280;64740;34.694;33.088;2023-05-15T07:36:37;1037.8;;;26.8;55
76044;BME280;64740;34.694;33.088;2023-05-15T07:42:11;1037.7;;;27;54.6
76044;BME280;64740;34.694;33.088;2023-05-15T07:46:59;1037.7;;;27.2;54.2
76044;BME280;64740;34.694;33.088;2023-05-15T07:51:37;1037.6;;;27.2;54.3
76044;BME280;64740;34.694;33.088;2023-05-15T07:56:35;1037.6;;;27.1;54.6
76044;BME280;64740;34.694;33.088;2023-05-15T08:01:57;1037.6;;;26.9;55.2
76044;BME280;64740;34.694;33.088;2023-05-15T08:06:25;1037.6;;;26.8;55.6
76044;BME280;64740;34.694;33.088;2023-05-15T08:12:17;1037.5;;;26.8;55.7
76044;BME280;64740;34.694;33.088;2023-05-15T08:17:01;1037.5;;;26.8;56
76044;BME280;64740;34.694;33.088;2023-05-15T08:21:25;1037.6;;;26.7;56.1
76044;BME280;64740;34.694;33.088;2023-05-15T08:27:11;1037.6;;;26.7;56
76044;BME280;64740;34.694;33.088;2023-05-15T08:31:25;1037.5;;;26.8;55.9
76044;BME280;64740;34.694;33.088;2023-05-15T08:36:25;1037.5;;;26.9;56.1
76044;BME280;64740;34.694;33.088;2023-05-15T08:41:27;1037.4;;;26.8;56.4
76044;BME280;64740;34.694;33.088;2023-05-15T08:47:11;1037.4;;;26.7;56.5
76044;BME280;64740;34.694;33.088;2023-05-15T08:51:49;1037.4;;;26.7;56.5
76044;BME280;64740;34.694;33.088;2023-05-15T08:56:59;1037.4;;;26.8;56.8
76044;BME280;64740;34.694;33.088;2023-05-15T09:02:11;1037.4;;;26.9;57.4
76044;BME280;64740;34.694;33.088;2023-05-15T09:07:01;1037.3;;;27.1;56.8
76044;BME280;64740;34.694;33.088;2023-05-15T09:11:45;1037.3;;;27.1;56.4
76044;BME280;64740;34.694;33.088;2023-05-15T09:16:37;1037.3;;;27.1;56.3
76044;BME280;64740;34.694;33.088;2023-05-15T09:22:14;1037.3;;;27.2;56.2
76044;BME280;64740;34.694;33.088;2023-05-15T09:27:11;1037.2;;;27.3;55.8
76044;BME280;64740;34.694;33.088;2023-05-15T09:31:37;1037.2;;;27.3;55.5
76044;BME280;64740;34.694;33.088;2023-05-15T09:37:11;1037.1;;;27.4;55.5
76044;BME280;64740;34.694;33.088;2023-05-15T09:41:40;1037;;;27.5;55
76044;BME280;64740;34.694;33.088;2023-05-15T09:46:25;1037;;;27.6;54.6
76044;BME280;64740;34.694;33.088;2023-05-15T09:51:49;1036.9;;;27.8;54.6
76044;BME280;64740;34.694;33.088;2023-05-15T09:57:13;1036.9;;;28;54.7
76044;BME280;64740;34.694;33.088;2023-05-15T10:02:01;1036.9;;;28.2;53.8
76044;BME280;64740;34.694;33.088;2023-05-15T10:06:37;1036.8;;;28.2;53.3
76044;BME280;64740;34.694;33.088;2023-05-15T10:12:11;1036.7;;;28.2;53.2
76044;BME280;64740;34.694;33.088;2023-05-15T10:16:25;1036.7;;;28.3;53.1
76044;BME280;64740;34.694;33.088;2023-05-15T10:21:34;1036.6;;;28.4;52.7
76044;BME280;64740;34.694;33.088;2023-05-15T10:26:47;1036.5;;;28.5;52.5
76044;BME280;64740;34.694;33.088;2023-05-15T10:32:09;1036.5;;;28.6;52.3
76044;BME280;64740;34.694;33.088;2023-05-15T10:36:55;1036.5;;;28.7;52.1
76044;BME280;64740;34.694;33.088;2023-05-15T10:41:35;1036.5;;;28.7;51.9
76044;BME280;64740;34.694;33.088;2023-05-15T10:46:37;1036.5;;;28.6;52
76044;BME280;64740;34.694;33.088;2023-05-15T10:52:01;1036.4;;;28.8;51.9
76044;BME280;64740;34.694;33.088;2023-05-15T10:56:36;1036.5;;;29.2;51.4
76044;BME280;64740;34.694;33.088;2023-05-15T11:01:26;1036.5;;;29.5;50.7
76044;BME280;64740;34.694;33.088;2023-05-15T11:06:43;1036.4;;;29.8;50.1
76044;BME280;64740;34.694;33.088;2023-05-15T11:12:05;1036.4;;;30;49.4
76044;BME280;64740;34.694;33.088;2023-05-15T11:17:07;1036.3;;;30.1;48.8
76044;BME280;64740;34.694;33.088;2023-05-15T11:22:14;1036.2;;;30.3;48.6
76044;BME280;64740;34.694;33.088;2023-05-15T11:26:35;1036.2;;;30.6;48
76044;BME280;64740;34.694;33.088;2023-05-15T11:31:37;1036.1;;;30.8;47.3
76044;BME280;64740;34.694;33.088;2023-05-15T11:36:36;1036.1;;;31;47.3
76044;BME280;64740;34.694;33.088;2023-05-15T11:41:45;1036.1;;;31.2;46.5
76044;BME280;64740;34.694;33.088;2023-05-15T11:46:55;1036;;;31.3;46.4
76044;BME280;64740;34.694;33.088;2023-05-15T11:52:09;1035.9;;;31.6;46.2
76044;BME280;64740;34.694;33.088;2023-05-15T11:56:25;1035.9;;;31.8;45.8
76044;BME280;64740;34.694;33.088;2023-05-15T12:01:45;1035.9;;;31.8;45.7
76044;BME280;64740;34.694;33.088;2023-05-15T12:06:53;1035.9;;;31.8;45.6
76044;BME280;64740;34.694;33.088;2023-05-15T12:11:57;1035.8;;;31.9;44.9
76044;BME280;64740;34.694;33.088;2023-05-15T12:16:25;1035.7;;;32.1;44.2
76044;BME280;64740;34.694;33.088;2023-05-15T12:21:24;1035.7;;;32.1;44
76044;BME280;64740;34.694;33.088;2023-05-15T12:27:09;1035.7;;;32.2;44
76044;BME280;64740;34.694;33.088;2023-05-15T12:32:09;1035.6;;;32.3;43.5
76044;BME280;64740;34.694;33.088;2023-05-15T12:36:35;1035.6;;;32.4;43.4
76044;BME280;64740;34.694;33.088;2023-05-15T12:42:09;1035.6;;;32.3;42.8
76044;BME280;64740;34.694;33.088;2023-05-15T12:46:45;1035.5;;;32.2;42.9
76044;BME280;64740;34.694;33.088;2023-05-15T12:51:40;1035.4;;;32.2;42.9
76044;BME280;64740;34.694;33.088;2023-05-15T12:56:47;1035.3;;;32.2;42.5
76044;BME280;64740;34.694;33.088;2023-05-15T13:02:11;1035.2;;;32.2;41.9
76044;BME280;64740;34.694;33.088;2023-05-15T13:06:25;1035.1;;;32.5;41
76044;BME280;64740;34.694;33.088;2023-05-15T13:11:28;1035;;;32.9;40.4
76044;BME280;64740;34.694;33.088;2023-05-15T13:17:11;1035;;;33.2;39.6
76044;BME280;64740;34.694;33.088;2023-05-15T13:21:25;1034.8;;;33.5;39.1
76044;BME280;64740;34.694;33.088;2023-05-15T13:26:45;1034.8;;;33.8;38.5
76044;BME280;64740;34.694;33.088;2023-05-15T13:31:45;1034.7;;;33.8;38.1
76044;BME280;64740;34.694;33.088;2023-05-15T13:37:11;1034.7;;;33.8;38.2
76044;BME280;64740;34.694;33.088;2023-05-15T13:41:55;1034.6;;;33.8;38.4
76044;BME280;64740;34.694;33.088;2023-05-15T13:46:25;1034.5;;;33.9;38.4
76044;BME280;64740;34.694;33.088;2023-05-15T13:51:37;1034.6;;;33.6;39.2
76044;BME280;64740;34.694;33.088;2023-05-15T13:56:59;1034.5;;;33.3;39.6
76044;BME280;64740;34.694;33.088;2023-05-15T14:01:45;1034.5;;;33.1;40.1
76044;BME280;64740;34.694;33.088;2023-05-15T14:06:47;1034.5;;;33.1;39.9
76044;BME280;64740;34.694;33.088;2023-05-15T14:11:25;1034.6;;;33.1;39.9
76044;BME280;64740;34.694;33.088;2023-05-15T14:16:25;1034.5;;;33.2;40
76044;BME280;64740;34.694;33.088;2023-05-15T14:22:11;1034.5;;;33.2;40.6
76044;BME280;64740;34.694;33.088;2023-05-15T14:26:59;1034.5;;;32.9;40.9
76044;BME280;64740;34.694;33.088;2023-05-15T14:32:05;1034.4;;;32.9;40.7
76044;BME280;64740;34.694;33.088;2023-05-15T14:37:07;1034.4;;;32.9;40.7
76044;BME280;64740;34.694;33.088;2023-05-15T14:41:45;1034.4;;;32.8;40.6
76044;BME280;64740;34.694;33.088;2023-05-15T14:46:25;1034.4;;;32.8;40.6
76044;BME280;64740;34.694;33.088;2023-05-15T14:51:55;1034.4;;;32.8;40.7
76044;BME280;64740;34.694;33.088;2023-05-15T14:57:07;1034.4;;;32.8;41
76044;BME280;64740;34.694;33.088;2023-05-15T15:01:45;1034.4;;;32.6;41.3
76044;BME280;64740;34.694;33.088;2023-05-15T15:07:09;1034.4;;;32.5;41.4
76044;BME280;64740;34.694;33.088;2023-05-15T15:12:09;1034.4;;;32.4;41.3
76044;BME280;64740;34.694;33.088;2023-05-15T15:16:59;1034.4;;;32.3;41
76044;BME280;64740;34.694;33.088;2023-05-15T15:21:25;1034.4;;;32.1;40.5
76044;BME280;64740;34.694;33.088;2023-05-15T15:26:59;1034.4;;;32;40.5
76044;BME280;64740;34.694;33.088;2023-05-15T15:32:09;1034.4;;;31.9;40.5
76044;BME280;64740;34.694;33.088;2023-05-15T15:36:55;1034.4;;;31.7;41.1
76044;BME280;64740;34.694;33.088;2023-05-15T15:41:35;1034.4;;;31.6;40.5
76044;BME280;64740;34.694;33.088;2023-05-15T15:47:09;1034.3;;;31.5;39.8
76044;BME280;64740;34.694;33.088;2023-05-15T15:51:47;1034.4;;;31.4;39.5
76044;BME280;64740;34.694;33.088;2023-05-15T15:56:25;1034.4;;;31.3;39.5
76044;BME280;64740;34.694;33.088;2023-05-15T16:01:47;1034.5;;;31.1;40
76044;BME280;64740;34.694;33.088;2023-05-15T16:06:55;1034.5;;;30.9;40.6
76044;BME280;64740;34.694;33.088;2023-05-15T16:11:35;1034.5;;;30.5;41.3
76044;BME280;64740;34.694;33.088;2023-05-15T16:16:59;1034.5;;;30.3;42.3
76044;BME280;64740;34.694;33.088;2023-05-15T16:22:09;1034.6;;;30;42.6
76044;BME280;64740;34.694;33.088;2023-05-15T16:26:49;1034.6;;;29.7;43.3
76044;BME280;64740;34.694;33.088;2023-05-15T16:32:09;1034.5;;;29.4;44
76044;BME280;64740;34.694;33.088;2023-05-15T16:36:45;1034.5;;;29.2;44.7
76044;BME280;64740;34.694;33.088;2023-05-15T16:41:25;1034.5;;;29;45.6
76044;BME280;64740;34.694;33.088;2023-05-15T16:46:55;1034.5;;;28.9;46.3
76044;BME280;64740;34.694;33.088;2023-05-15T16:52:09;1034.5;;;28.8;46.5
76044;BME280;64740;34.694;33.088;2023-05-15T16:56:25;1034.5;;;28.6;47
76044;BME280;64740;34.694;33.088;2023-05-15T17:01:57;1034.6;;;28.4;47.6
76044;BME280;64740;34.694;33.088;2023-05-15T17:06:55;1034.6;;;28.2;48.2
76044;BME280;64740;34.694;33.088;2023-05-15T17:11:59;1034.5;;;28.1;48.3
76044;BME280;64740;34.694;33.088;2023-05-15T17:16:25;1034.5;;;28;48.7
76044;BME280;64740;34.694;33.088;2023-05-15T17:21:25;1034.5;;;28;48.8
76044;BME280;64740;34.694;33.088;2023-05-15T17:27:09;1034.6;;;27.9;48.8
76044;BME280;64740;34.694;33.088;2023-05-15T17:32:07;1034.7;;;27.8;49
76044;BME280;64740;34.694;33.088;2023-05-15T17:36:25;1034.6;;;27.7;49.3
76044;BME280;64740;34.694;33.088;2023-05-15T17:42:07;1034.7;;;27.7;49.6
76044;BME280;64740;34.694;33.088;2023-05-15T17:46:45;1034.7;;;27.6;50
76044;BME280;64740;34.694;33.088;2023-05-15T17:51:25;1034.7;;;27.5;50.4
76044;BME280;64740;34.694;33.088;2023-05-15T17:56:47;1034.8;;;27.5;50.5
76044;BME280;64740;34.694;33.088;2023-05-15T18:02:07;1034.8;;;27.4;50.6
76044;BME280;64740;34.694;33.088;2023-05-15T18:06:35;1034.8;;;27.4;50.6
76044;BME280;64740;34.694;33.088;2023-05-15T18:11:41;1034.9;;;27.4;50.5
76044;BME280;64740;34.694;33.088;2023-05-15T18:17:05;1034.9;;;27.4;50.3
76044;BME280;64740;34.694;33.088;2023-05-15T18:21:25;1035;;;27.4;50.2
76044;BME280;64740;34.694;33.088;2023-05-15T18:26:25;1035;;;27.4;50.1
76044;BME280;64740;34.694;33.088;2023-05-15T18:31:25;1035;;;27.5;50
76044;BME280;64740;34.694;33.088;2023-05-15T18:37:05;1035;;;27.5;49.3
76044;BME280;64740;34.694;33.088;2023-05-15T18:41:53;1035;;;27.5;48.7
76044;BME280;64740;34.694;33.088;2023-05-15T18:46:35;1035.1;;;27.5;48.3
76044;BME280;64740;34.694;33.088;2023-05-15T18:51:47;1035.1;;;27.4;47.5
76044;BME280;64740;34.694;33.088;2023-05-15T18:57:07;1035.1;;;27.4;46.6
76044;BME280;64740;34.694;33.088;2023-05-15T19:01:25;1035.1;;;27.4;46.1
76044;BME280;64740;34.694;33.088;2023-05-15T19:06:25;1035.2;;;27.4;45.6
76044;BME280;64740;34.694;33.088;2023-05-15T19:11:31;1035.2;;;27.3;45.4
76044;BME280;64740;34.694;33.088;2023-05-15T19:16:25;1035.2;;;27.2;45.3
76044;BME280;64740;34.694;33.088;2023-05-15T19:22:07;1035.2;;;27.1;45.4
76044;BME280;64740;34.694;33.088;2023-05-15T19:26:59;1035.1;;;27.1;45.4
76044;BME280;64740;34.694;33.088;2023-05-15T19:31:37;1035.1;;;27;45.3
76044;BME280;64740;34.694;33.088;2023-05-15T19:37:07;1035.1;;;27;45.1
76044;BME280;64740;34.694;33.088;2023-05-15T19:41:45;1035.1;;;26.9;45.2
76044;BME280;64740;34.694;33.088;2023-05-15T19:46:35;1035.1;;;26.9;45.2
76044;BME280;64740;34.694;33.088;2023-05-15T19:51:55;1035.1;;;26.9;45.3
76044;BME280;64740;34.694;33.088;2023-05-15T19:57:07;1035.1;;;26.9;45.3
76044;BME280;64740;34.694;33.088;2023-05-15T20:01:25;1035.1;;;26.8;45.3
76044;BME280;64740;34.694;33.088;2023-05-15T20:07:07;1035.2;;;26.8;45.2
76044;BME280;64740;34.694;33.088;2023-05-15T20:12:07;1035.1;;;26.8;45.4
76044;BME280;64740;34.694;33.088;2023-05-15T20:16:59;1035.1;;;26.8;45.5
76044;BME280;64740;34.694;33.088;2023-05-15T20:21:35;1035;;;26.8;45.5
76044;BME280;64740;34.694;33.088;2023-05-15T20:26:31;1035;;;26.8;45.7
76044;BME280;64740;34.694;33.088;2023-05-15T20:32:05;1034.9;;;26.8;45.7
76044;BME280;64740;34.694;33.088;2023-05-15T20:37:05;1034.9;;;26.8;45.8
76044;BME280;64740;34.694;33.088;2023-05-15T20:41:35;1034.8;;;26.7;45.8
76044;BME280;64740;34.694;33.088;2023-05-15T20:47:05;1034.7;;;26.7;45.7
76044;BME280;64740;34.694;33.088;2023-05-15T20:51:35;1034.7;;;26.7;45.7
76044;BME280;64740;34.694;33.088;2023-05-15T20:56:45;1034.7;;;26.7;45.5
76044;BME280;64740;34.694;33.088;2023-05-15T21:01:49;1034.6;;;26.6;45.4
76044;BME280;64740;34.694;33.088;2023-05-15T21:07:07;1034.6;;;26.6;45.3
76044;BME280;64740;34.694;33.088;2023-05-15T21:11:27;1034.6;;;26.5;45.5
76044;BME280;64740;34.694;33.088;2023-05-15T21:16:41;1034.5;;;26.4;45.7
76044;BME280;64740;34.694;33.088;2023-05-15T21:22:07;1034.5;;;26.4;45.8
76044;BME280;64740;34.694;33.088;2023-05-15T21:26:41;1034.5;;;26.4;45.7
76044;BME280;64740;34.694;33.088;2023-05-15T21:31:35;1034.5;;;26.4;45.8
76044;BME280;64740;34.694;33.088;2023-05-15T21:36:45;1034.5;;;26.4;45.9
76044;BME280;64740;34.694;33.088;2023-05-15T21:42:05;1034.4;;;26.4;45.8
76044;BME280;64740;34.694;33.088;2023-05-15T21:46:53;1034.4;;;26.4;45.6
76044;BME280;64740;34.694;33.088;2023-05-15T21:51:39;1034.3;;;26.3;45.6
76044;BME280;64740;34.694;33.088;2023-05-15T21:56:47;1034.3;;;26.3;45.6
76044;BME280;64740;34.694;33.088;2023-05-15T22:01:27;1034.2;;;26.3;45.7
76044;BME280;64740;34.694;33.088;2023-05-15T22:06:25;1034.2;;;26.3;45.5
76044;BME280;64740;34.694;33.088;2023-05-15T22:11:55;1034.2;;;26.3;45.3
76044;BME280;64740;34.694;33.088;2023-05-15T22:16:41;1034.2;;;26.2;45.3
76044;BME280;64740;34.694;33.088;2023-05-15T22:21:33;1034.2;;;26.2;45.3
76044;BME280;64740;34.694;33.088;2023-05-15T22:27:07;1034.2;;;26.2;45.1
76044;BME280;64740;34.694;33.088;2023-05-15T22:31:57;1034.2;;;26.1;45.1
76044;BME280;64740;34.694;33.088;2023-05-15T22:36:25;1034.1;;;26.1;45
76044;BME280;64740;34.694;33.088;2023-05-15T22:42:05;1034.1;;;26;44.9
76044;BME280;64740;34.694;33.088;2023-05-15T22:46:35;1034;;;26;44.8
76044;BME280;64740;34.694;33.088;2023-05-15T22:51:25;1034;;;25.9;44.8
76044;BME280;64740;34.694;33.088;2023-05-15T22:56:37;1034;;;25.8;44.7
76044;BME280;64740;34.694;33.088;2023-05-15T23:02:07;1034;;;25.8;44.6
76044;BME280;64740;34.694;33.088;2023-05-15T23:06:25;1033.9;;;25.8;44.7
76044;BME280;64740;34.694;33.088;2023-05-15T23:12:07;1033.8;;;25.7;44.7
76044;BME280;64740;34.694;33.088;2023-05-15T23:17:07;1033.8;;;25.7;44.6
76044;BME280;64740;34.694;33.088;2023-05-15T23:21:59;1033.7;;;25.7;44.3
76044;BME280;64740;34.694;33.088;2023-05-15T23:26:41;1033.7;;;25.7;44.2
76044;BME280;64740;34.694;33.088;2023-05-15T23:31:59;1033.6;;;25.7;44
76044;BME280;64740;34.694;33.088;2023-05-15T23:36:53;1033.5;;;25.6;44
76044;BME280;64740;34.694;33.088;2023-05-15T23:41:53;1033.5;;;25.6;44
76044;BME280;64740;34.694;33.088;2023-05-15T23:46:25;1033.4;;;25.6;43.9
76044;BME280;64740;34.694;33.088;2023-05-15T23:52:07;1033.4;;;25.6;43.9
76044;BME280;64740;34.694;33.088;2023-05-15T23:56:55;1033.3;;;25.6;43.8
